Time;durP1;ratioP1;P1;durP2;ratioP2;P2;SDS_P1;SDS_P2;PMS_P1;PMS_P2;Temp;Humidity;BMP_temperature;BMP_pressure;BME280_temperature;BME280_humidity;BME280_pressure;Samples;Min_cycle;Max_cycle;Signal;HPM_P1;HPM_P2
2022/02/10 00:17:23;;;;;;;5.18;2.30;;;;;;;;;;6196478;23;20001;-78
2022/02/10 00:20:42;;;;;;;5.43;2.40;;;;;;;;;;6186222;23;20411;-77
2022/02/10 00:38:19;;;;;;;9.00;2.85;;;;;;;;;;6187614;23;20056;-77
2022/02/10 00:40:44;;;;;;;5.43;2.13;;;;;;;;;;6185743;23;20009;-79
2022/02/10 00:43:10;;;;;;;4.63;2.40;;;;;;;;;;6186223;23;20001;-78
2022/02/10 00:45:35;;;;;;;8.60;2.13;;;;;;;;;;6186022;23;20001;-77
2022/02/10 00:48:07;;;;;;;8.40;2.58;;;;;;;;;;6185865;23;19997;-77
2022/02/10 00:50:34;;;;;;;5.10;2.55;;;;;;;;;;6186079;23;20008;-78
2022/02/10 00:53:14;;;;;;;6.57;2.20;;;;;;;;;;6185904;23;20427;-78
2022/02/10 00:55:42;;;;;;;7.97;2.33;;;;;;;;;;6185773;23;20005;-78
2022/02/10 00:58:13;;;;;;;7.45;2.30;;;;;;;;;;6209166;23;19997;-77
2022/02/10 01:30:11;;;;;;;4.90;2.10;;;;;;;;;;6185697;23;20055;-77
2022/02/10 01:32:37;;;;;;;3.85;1.90;;;;;;;;;;6185667;23;19989;-77
2022/02/10 01:35:05;;;;;;;4.50;1.65;;;;;;;;;;6209290;23;20012;-77
2022/02/10 01:37:30;;;;;;;5.22;1.98;;;;;;;;;;6209179;23;20013;-76
2022/02/10 01:40:06;;;;;;;7.47;2.28;;;;;;;;;;6184200;23;20001;-78
2022/02/10 02:03:47;;;;;;;7.38;2.08;;;;;;;;;;6185501;23;20004;-78
2022/02/10 02:06:28;;;;;;;6.35;1.95;;;;;;;;;;6185337;23;20072;-77
2022/02/10 02:08:53;;;;;;;5.95;2.20;;;;;;;;;;6185429;23;19993;-77
2022/02/10 02:11:26;;;;;;;5.93;2.00;;;;;;;;;;6185085;23;20068;-78
2022/02/10 02:13:51;;;;;;;10.65;2.78;;;;;;;;;;6208592;23;20004;-79
2022/02/10 02:16:17;;;;;;;4.35;2.20;;;;;;;;;;6184962;23;20403;-78
2022/02/10 02:18:42;;;;;;;3.97;2.03;;;;;;;;;;6184825;23;20025;-78
2022/02/10 02:21:08;;;;;;;7.28;1.98;;;;;;;;;;6184650;23;20005;-77
2022/02/10 02:23:34;;;;;;;5.05;2.30;;;;;;;;;;6208152;23;20008;-78
2022/02/10 02:26:11;;;;;;;3.65;2.10;;;;;;;;;;6185173;23;20001;-78
2022/02/10 02:28:39;;;;;;;4.53;2.13;;;;;;;;;;6185111;23;20023;-78
2022/02/10 02:31:08;;;;;;;7.72;2.47;;;;;;;;;;6185677;23;20004;-78
2022/02/10 03:08:56;;;;;;;5.15;2.70;;;;;;;;;;6098460;23;20444;-80
2022/02/10 03:11:22;;;;;;;3.78;2.20;;;;;;;;;;6183790;23;20073;-78
2022/02/10 03:21:38;;;;;;;4.97;2.53;;;;;;;;;;6188527;23;20498;-78
2022/02/10 04:05:01;;;;;;;6.50;3.13;;;;;;;;;;6184653;23;20037;-79
2022/02/10 04:23:17;;;;;;;9.85;3.17;;;;;;;;;;6188882;23;20008;-79
2022/02/10 04:29:03;;;;;;;7.05;3.28;;;;;;;;;;6189516;23;20458;-78
2022/02/10 04:32:05;;;;;;;5.13;2.90;;;;;;;;;;6191359;23;20457;-77
2022/02/10 05:00:43;;;;;;;9.65;4.05;;;;;;;;;;6266996;23;20060;-76
2022/02/10 05:31:35;;;;;;;8.30;4.40;;;;;;;;;;6248963;23;20448;-76
2022/02/10 05:35:22;;;;;;;9.32;4.78;;;;;;;;;;6249571;23;20289;-77
2022/02/10 05:37:57;;;;;;;10.10;4.43;;;;;;;;;;6224035;23;20062;-77
2022/02/10 05:45:42;;;;;;;13.63;4.70;;;;;;;;;;6219953;23;20422;-76
2022/02/10 06:41:52;;;;;;;13.80;6.68;;;;;;;;;;6218019;23;20011;-76
2022/02/10 07:03:31;;;;;;;13.35;6.35;;;;;;;;;;6249472;23;20058;-76
2022/02/10 07:06:17;;;;;;;12.20;6.35;;;;;;;;;;6249903;23;20020;-76
2022/02/10 07:47:14;;;;;;;14.43;6.43;;;;;;;;;;6253677;23;20011;-75
2022/02/10 07:49:52;;;;;;;14.75;6.43;;;;;;;;;;6252916;23;20026;-77
2022/02/10 07:57:45;;;;;;;13.50;6.30;;;;;;;;;;6253282;23;20006;-75
2022/02/10 08:01:03;;;;;;;11.67;5.97;;;;;;;;;;6251476;23;20065;-76
2022/02/10 08:57:32;;;;;;;18.42;5.90;;;;;;;;;;6263938;23;20004;-76
2022/02/10 09:00:29;;;;;;;10.80;4.97;;;;;;;;;;6255893;23;20053;-76
2022/02/10 09:08:45;;;;;;;12.38;5.00;;;;;;;;;;6267850;23;20028;-76
2022/02/10 09:57:30;;;;;;;12.13;3.65;;;;;;;;;;6256957;23;20011;-77
2022/02/10 10:00:39;;;;;;;6.38;3.35;;;;;;;;;;6258851;22;20003;-77
2022/02/10 10:03:22;;;;;;;10.45;4.15;;;;;;;;;;6249115;22;19992;-77
2022/02/10 10:05:58;;;;;;;8.15;3.53;;;;;;;;;;6252873;23;19996;-77
2022/02/10 10:08:57;;;;;;;11.02;4.28;;;;;;;;;;6227114;23;19996;-77
2022/02/10 10:14:15;;;;;;;13.73;4.20;;;;;;;;;;6251935;23;19900;-77
2022/02/10 10:19:59;;;;;;;7.30;3.63;;;;;;;;;;6158574;23;20085;-76
2022/02/10 10:22:56;;;;;;;7.93;3.72;;;;;;;;;;6155959;23;20096;-77
2022/02/10 10:50:26;;;;;;;7.78;3.38;;;;;;;;;;6244729;23;20011;-76
2022/02/10 10:53:08;;;;;;;8.90;3.50;;;;;;;;;;6220605;23;20011;-77
2022/02/10 10:58:09;;;;;;;12.00;5.68;;;;;;;;;;6247091;23;20063;-77
2022/02/10 11:39:19;;;;;;;10.43;3.53;;;;;;;;;;6247630;23;20043;-78
2022/02/10 12:29:19;;;;;;;7.25;3.63;;;;;;;;;;6244547;23;20046;-74
2022/02/10 13:32:36;;;;;;;13.15;6.60;;;;;;;;;;6246403;23;20082;-75
2022/02/10 14:12:53;;;;;;;16.33;7.18;;;;;;;;;;6250476;23;20023;-75
2022/02/10 14:18:07;;;;;;;15.13;6.40;;;;;;;;;;6256815;23;20004;-75
2022/02/10 14:25:39;;;;;;;15.73;7.10;;;;;;;;;;6247052;23;20046;-75
2022/02/10 14:28:04;;;;;;;11.70;6.25;;;;;;;;;;6219255;23;20345;-73
2022/02/10 14:30:31;;;;;;;12.88;5.95;;;;;;;;;;6246398;23;20003;-75
2022/02/10 14:32:58;;;;;;;15.10;6.45;;;;;;;;;;6245747;23;20196;-73
2022/02/10 14:35:29;;;;;;;12.65;6.35;;;;;;;;;;6245558;23;20048;-74
2022/02/10 14:38:19;;;;;;;38.90;8.30;;;;;;;;;;6245468;23;19988;-75
2022/02/10 14:41:16;;;;;;;16.33;6.88;;;;;;;;;;6245098;23;20003;-74
2022/02/10 15:20:53;;;;;;;18.15;7.20;;;;;;;;;;6245306;23;20057;-74
2022/02/10 15:47:06;;;;;;;15.70;6.70;;;;;;;;;;6244615;23;20081;-75
2022/02/10 15:49:22;;;;;;;19.13;6.57;;;;;;;;;;6210107;23;20016;-73
2022/02/10 15:52:08;;;;;;;15.75;6.50;;;;;;;;;;6213579;23;20010;-73
2022/02/10 15:55:00;;;;;;;16.25;6.60;;;;;;;;;;6187574;23;20001;-75
2022/02/10 16:11:13;;;;;;;15.80;7.22;;;;;;;;;;6214920;23;20008;-74
2022/02/10 16:18:50;;;;;;;17.73;7.32;;;;;;;;;;6216623;23;20000;-75
2022/02/10 16:21:19;;;;;;;20.35;8.05;;;;;;;;;;6215777;23;19996;-77
2022/02/10 16:23:45;;;;;;;;;;;;;;;;;;6216031;23;20399;-76
2022/02/10 16:26:15;;;;;;;13.55;8.00;;;;;;;;;;6215916;23;19958;-76
2022/02/10 16:28:41;;;;;;;16.85;7.18;;;;;;;;;;6189782;23;20128;-76
2022/02/10 16:31:11;;;;;;;15.48;6.70;;;;;;;;;;6216269;23;20032;-76
2022/02/10 16:33:36;;;;;;;15.82;7.22;;;;;;;;;;6216151;23;20020;-77
2022/02/10 16:36:05;;;;;;;14.23;7.25;;;;;;;;;;6216085;23;20410;-76
2022/02/10 16:38:30;;;;;;;;;;;;;;;;;;6190258;23;20042;-76
2022/02/10 16:40:55;;;;;;;19.15;7.57;;;;;;;;;;6215910;23;19940;-75
2022/02/10 16:43:21;;;;;;;13.95;6.43;;;;;;;;;;6216264;23;20023;-75
2022/02/10 16:45:46;;;;;;;17.90;7.93;;;;;;;;;;6216170;23;20001;-74
2022/02/10 16:48:11;;;;;;;14.05;8.02;;;;;;;;;;6242692;23;20031;-77
2022/02/10 16:50:38;;;;;;;19.52;7.65;;;;;;;;;;6246089;23;20008;-76
2022/02/10 16:53:08;;;;;;;15.73;7.03;;;;;;;;;;6218983;23;19996;-77
2022/02/10 16:55:43;;;;;;;16.25;7.65;;;;;;;;;;6245876;23;20425;-76
2022/02/10 16:58:29;;;;;;;21.48;7.55;;;;;;;;;;6245781;23;19996;-75
2022/02/10 17:06:04;;;;;;;16.73;7.93;;;;;;;;;;6245628;23;20011;-76
2022/02/10 17:19:46;;;;;;;18.70;8.40;;;;;;;;;;6245582;23;20460;-74
2022/02/10 17:25:13;;;;;;;14.57;7.93;;;;;;;;;;6256719;23;20049;-76
2022/02/10 17:27:42;;;;;;;14.05;7.47;;;;;;;;;;6245987;23;20433;-74
2022/02/10 17:54:22;;;;;;;21.35;10.57;;;;;;;;;;6256177;23;20502;-76
2022/02/10 17:56:48;;;;;;;19.63;11.98;;;;;;;;;;6218946;23;20004;-76
2022/02/10 17:59:13;;;;;;;19.15;10.93;;;;;;;;;;6218657;23;20054;-76
2022/02/10 18:01:39;;;;;;;16.83;9.18;;;;;;;;;;6245185;23;20008;-76
2022/02/10 18:04:04;;;;;;;19.10;9.88;;;;;;;;;;6218679;23;19996;-76
2022/02/10 18:06:32;;;;;;;18.67;10.32;;;;;;;;;;6245473;22;20000;-76
2022/02/10 18:12:32;;;;;;;19.83;10.02;;;;;;;;;;6244902;23;20015;-75
2022/02/10 18:14:42;;;;;;;17.25;10.00;;;;;;;;;;6244636;23;20007;-76
2022/02/10 18:17:14;;;;;;;21.63;10.80;;;;;;;;;;6245327;23;20023;-77
2022/02/10 18:19:51;;;;;;;18.42;10.85;;;;;;;;;;6218551;23;19993;-76
2022/02/10 18:27:56;;;;;;;21.17;10.25;;;;;;;;;;6255043;23;20007;-76
2022/02/10 18:30:24;;;;;;;19.80;10.55;;;;;;;;;;6243722;23;19999;-77
2022/02/10 19:08:59;;;;;;;21.50;10.93;;;;;;;;;;6195266;23;20078;-77
2022/02/10 19:11:24;;;;;;;24.20;11.52;;;;;;;;;;6244432;23;20421;-76
2022/02/10 19:13:53;;;;;;;27.85;13.55;;;;;;;;;;6244041;23;19996;-76
2022/02/10 19:16:18;;;;;;;23.08;12.32;;;;;;;;;;6217303;23;20004;-77
2022/02/10 19:18:44;;;;;;;23.13;11.32;;;;;;;;;;6244256;23;20307;-76
2022/02/10 19:21:09;;;;;;;19.50;11.35;;;;;;;;;;6244315;23;20018;-75
2022/02/10 19:23:34;;;;;;;21.80;12.55;;;;;;;;;;6243745;23;20075;-76
2022/02/10 19:25:59;;;;;;;22.77;11.20;;;;;;;;;;6244706;23;20019;-78
2022/02/10 19:28:25;;;;;;;23.67;12.15;;;;;;;;;;6244490;23;20460;-76
2022/02/10 19:30:50;;;;;;;21.58;10.82;;;;;;;;;;6242778;23;20099;-77
2022/02/10 19:33:16;;;;;;;23.55;11.77;;;;;;;;;;6243901;23;19996;-76
2022/02/10 19:35:46;;;;;;;18.80;11.40;;;;;;;;;;6217326;23;20349;-77
2022/02/10 19:38:16;;;;;;;20.20;11.50;;;;;;;;;;6244214;23;20081;-76
2022/02/10 19:40:42;;;;;;;27.23;12.07;;;;;;;;;;6244211;23;19996;-77
2022/02/10 19:43:07;;;;;;;20.60;11.85;;;;;;;;;;6244039;23;19996;-77
2022/02/10 19:45:33;;;;;;;20.02;11.32;;;;;;;;;;6244830;23;20031;-78
2022/02/10 19:47:58;;;;;;;22.10;10.88;;;;;;;;;;6218067;23;20062;-77
2022/02/10 19:50:27;;;;;;;20.33;10.68;;;;;;;;;;6244251;23;20000;-78
2022/02/10 19:52:54;;;;;;;23.33;11.32;;;;;;;;;;6244894;23;20066;-78
2022/02/10 19:55:23;;;;;;;19.08;11.30;;;;;;;;;;6246229;23;19996;-78
2022/02/10 19:57:50;;;;;;;24.17;11.30;;;;;;;;;;6246481;23;20019;-78
2022/02/10 20:00:19;;;;;;;21.40;11.90;;;;;;;;;;6246472;23;20016;-78
2022/02/10 20:02:44;;;;;;;25.20;12.15;;;;;;;;;;6246052;23;19996;-78
2022/02/10 20:05:10;;;;;;;20.33;11.93;;;;;;;;;;6246229;23;20050;-78
2022/02/10 20:07:40;;;;;;;21.15;10.98;;;;;;;;;;6246271;23;20497;-77
2022/02/10 20:10:05;;;;;;;20.63;11.15;;;;;;;;;;6246467;23;20000;-78
2022/02/10 20:12:31;;;;;;;19.17;12.02;;;;;;;;;;6219127;23;20042;-78
2022/02/10 20:14:56;;;;;;;19.48;10.20;;;;;;;;;;6246276;23;20079;-78
2022/02/10 20:17:21;;;;;;;21.55;11.48;;;;;;;;;;6245977;23;20447;-79
2022/02/10 20:19:47;;;;;;;18.45;11.07;;;;;;;;;;6246135;23;19999;-79
2022/02/10 20:22:13;;;;;;;20.65;11.55;;;;;;;;;;6218832;23;20433;-78
2022/02/10 20:24:38;;;;;;;23.25;11.48;;;;;;;;;;6246073;23;20019;-77
2022/02/10 20:27:03;;;;;;;19.95;11.60;;;;;;;;;;6246085;23;20465;-77
2022/02/10 20:29:29;;;;;;;18.48;11.10;;;;;;;;;;6246215;23;20430;-78
2022/02/10 20:31:54;;;;;;;20.45;11.50;;;;;;;;;;6245028;23;20000;-78
2022/02/10 20:34:20;;;;;;;16.70;11.20;;;;;;;;;;6243699;23;20331;-77
2022/02/10 20:36:45;;;;;;;20.55;10.95;;;;;;;;;;6245513;23;20485;-78
2022/02/10 20:39:10;;;;;;;25.90;12.38;;;;;;;;;;6245182;23;20436;-78
2022/02/10 20:41:37;;;;;;;20.88;12.30;;;;;;;;;;6216301;23;20000;-78
2022/02/10 20:44:02;;;;;;;21.05;11.02;;;;;;;;;;6243395;23;20422;-78
2022/02/10 20:46:30;;;;;;;21.17;11.90;;;;;;;;;;6243552;23;20004;-77
2022/02/10 20:48:55;;;;;;;21.27;12.05;;;;;;;;;;6243973;23;20000;-78
2022/02/10 20:51:21;;;;;;;22.45;12.68;;;;;;;;;;6245201;23;20007;-78
2022/02/10 20:53:47;;;;;;;22.50;11.95;;;;;;;;;;6243478;23;20006;-78
2022/02/10 20:56:13;;;;;;;21.17;12.38;;;;;;;;;;6245225;23;20319;-78
2022/02/10 20:58:39;;;;;;;22.52;12.63;;;;;;;;;;6245527;23;20003;-79
2022/02/10 21:01:05;;;;;;;22.48;12.82;;;;;;;;;;6245302;23;19992;-78
2022/02/10 21:03:33;;;;;;;22.70;12.73;;;;;;;;;;6245031;23;19999;-78
2022/02/10 21:06:07;;;;;;;20.73;12.35;;;;;;;;;;6218465;23;20000;-78
2022/02/10 21:10:59;;;;;;;23.23;12.55;;;;;;;;;;6245781;23;20004;-78
2022/02/10 21:13:25;;;;;;;21.00;12.52;;;;;;;;;;6245206;23;20000;-77
2022/02/10 21:15:50;;;;;;;21.05;11.80;;;;;;;;;;6245125;23;20000;-76
2022/02/10 21:18:18;;;;;;;20.50;12.27;;;;;;;;;;6245163;23;20330;-78
2022/02/10 21:20:44;;;;;;;22.38;14.05;;;;;;;;;;6245489;23;20426;-78
2022/02/10 21:23:23;;;;;;;20.38;13.57;;;;;;;;;;6244975;23;20019;-77
2022/02/10 21:25:50;;;;;;;21.50;13.05;;;;;;;;;;6219121;23;20357;-78
2022/02/10 21:28:22;;;;;;;23.13;13.35;;;;;;;;;;6244949;23;19996;-76
2022/02/10 21:30:50;;;;;;;24.52;14.57;;;;;;;;;;6243879;23;19996;-77
2022/02/10 21:34:09;;;;;;;24.10;13.50;;;;;;;;;;6244534;23;20000;-78
2022/02/10 21:36:41;;;;;;;;;;;;;;;;;;6232119;22;20003;-77
2022/02/10 21:39:00;;;;;;;30.08;13.60;;;;;;;;;;6244515;22;19981;-77
2022/02/10 22:18:50;;;;;;;9.32;4.60;;;;;;;;;;6255243;23;20000;-77
2022/02/10 22:21:25;;;;;;;10.48;4.40;;;;;;;;;;6217722;23;20000;-78
2022/02/10 22:23:50;;;;;;;8.07;4.18;;;;;;;;;;6244620;23;19996;-79
2022/02/10 22:26:22;;;;;;;9.63;3.92;;;;;;;;;;6244491;23;20075;-78
2022/02/10 22:28:56;;;;;;;9.85;4.75;;;;;;;;;;6245156;23;20000;-78
2022/02/10 22:33:56;;;;;;;16.88;9.38;;;;;;;;;;6244379;23;20007;-79
2022/02/10 22:36:22;;;;;;;8.27;4.38;;;;;;;;;;6244960;23;20004;-79
2022/02/10 22:38:51;;;;;;;8.18;3.63;;;;;;;;;;6244850;23;19992;-78
2022/02/10 22:41:16;;;;;;;7.07;3.80;;;;;;;;;;6244406;23;20019;-80
2022/02/10 22:43:46;;;;;;;9.40;3.40;;;;;;;;;;6234079;22;20012;-73
2022/02/10 22:46:11;;;;;;;4.90;2.60;;;;;;;;;;6212438;23;19996;-74
2022/02/10 22:48:36;;;;;;;8.80;3.20;;;;;;;;;;6212911;23;20027;-76
2022/02/10 22:51:02;;;;;;;4.75;2.47;;;;;;;;;;6212806;23;20422;-75
2022/02/10 22:53:27;;;;;;;6.53;2.50;;;;;;;;;;6214186;23;20445;-74
2022/02/10 22:55:53;;;;;;;4.40;2.42;;;;;;;;;;6214811;23;19996;-74
2022/02/10 22:58:18;;;;;;;6.10;2.28;;;;;;;;;;6214407;23;20003;-75
2022/02/10 23:00:47;;;;;;;4.95;2.42;;;;;;;;;;6214098;23;20080;-75
2022/02/10 23:03:20;;;;;;;5.57;2.50;;;;;;;;;;6213829;23;20016;-74
2022/02/10 23:05:46;;;;;;;6.60;2.50;;;;;;;;;;6212134;23;20011;-74
2022/02/10 23:08:11;;;;;;;5.57;2.67;;;;;;;;;;6212473;23;20426;-74
2022/02/10 23:10:50;;;;;;;7.43;2.45;;;;;;;;;;6214035;23;20422;-75
2022/02/10 23:13:16;;;;;;;6.68;2.80;;;;;;;;;;6212220;23;20001;-74
2022/02/10 23:15:42;;;;;;;5.63;2.30;;;;;;;;;;6214041;23;20441;-74
2022/02/10 23:18:11;;;;;;;9.98;2.72;;;;;;;;;;6214277;23;19993;-74
2022/02/10 23:20:37;;;;;;;6.93;2.60;;;;;;;;;;6213808;23;19996;-74
2022/02/10 23:23:05;;;;;;;6.40;2.33;;;;;;;;;;6213732;23;20059;-74
2022/02/10 23:25:30;;;;;;;5.47;2.65;;;;;;;;;;6213896;23;20423;-73
2022/02/10 23:27:55;;;;;;;4.80;2.25;;;;;;;;;;6213344;23;20020;-73
2022/02/10 23:30:21;;;;;;;5.82;2.40;;;;;;;;;;6213985;23;20051;-73
2022/02/10 23:32:47;;;;;;;3.72;2.20;;;;;;;;;;6213560;23;20004;-75
2022/02/10 23:35:38;;;;;;;9.57;2.20;;;;;;;;;;6210175;23;20011;-74
2022/02/10 23:37:57;;;;;;;6.82;2.67;;;;;;;;;;6211741;23;20441;-74
2022/02/10 23:40:27;;;;;;;4.63;2.38;;;;;;;;;;6210495;23;20011;-74
2022/02/10 23:42:54;;;;;;;5.50;2.30;;;;;;;;;;6211669;23;20023;-74
2022/02/10 23:45:23;;;;;;;3.90;2.15;;;;;;;;;;6211739;23;20009;-72
2022/02/10 23:47:49;;;;;;;5.75;2.80;;;;;;;;;;6212216;23;19993;-74
2022/02/10 23:50:17;;;;;;;4.30;1.58;;;;;;;;;;6213969;23;20071;-75
2022/02/10 23:52:43;;;;;;;4.85;1.50;;;;;;;;;;6213828;23;20063;-74
2022/02/10 23:55:15;;;;;;;5.15;1.58;;;;;;;;;;6212371;23;20020;-74
2022/02/10 23:57:52;;;;;;;5.45;1.77;;;;;;;;;;6214717;23;19997;-74
